sensor_id;sensor_type;location;lat;lon;timestamp;noise_LAeq;noise_LA_min;noise_LA_max;noise_LA01;noise_LA95
45964;Laerm;31671;48.092;11.842;2023-04-16T00:01:58;29.13;27.78;32.10;;
45964;Laerm;31671;48.092;11.842;2023-04-16T00:04:24;29.04;27.58;36.01;;
45964;Laerm;31671;48.092;11.842;2023-04-16T00:06:50;29.24;27.83;45.52;;
45964;Laerm;31671;48.092;11.842;2023-04-16T00:09:16;30.38;27.56;43.16;;
45964;Laerm;31671;48.092;11.842;2023-04-16T00:11:42;29.06;27.62;31.32;;
45964;Laerm;31671;48.092;11.842;2023-04-16T00:14:08;29.10;27.91;32.50;;
45964;Laerm;31671;48.092;11.842;2023-04-16T00:16:33;29.11;27.81;32.10;;
45964;Laerm;31671;48.092;11.842;2023-04-16T00:18:59;29.20;27.79;34.62;;
45964;Laerm;31671;48.092;11.842;2023-04-16T00:21:27;32.82;27.84;55.49;;
45964;Laerm;31671;48.092;11.842;2023-04-16T00:23:53;29.35;27.44;42.27;;
45964;Laerm;31671;48.092;11.842;2023-04-16T00:26:18;29.05;27.87;31.77;;
45964;Laerm;31671;48.092;11.842;2023-04-16T00:28:45;29.53;27.78;47.71;;
45964;Laerm;31671;48.092;11.842;2023-04-16T00:31:10;29.87;27.87;54.14;;
45964;Laerm;31671;48.092;11.842;2023-04-16T00:33:36;30.20;27.62;49.21;;
45964;Laerm;31671;48.092;11.842;2023-04-16T00:36:02;29.35;27.70;39.53;;
45964;Laerm;31671;48.092;11.842;2023-04-16T00:38:28;28.99;27.60;30.91;;
45964;Laerm;31671;48.092;11.842;2023-04-16T00:40:54;29.98;27.54;51.41;;
45964;Laerm;31671;48.092;11.842;2023-04-16T00:43:23;29.25;27.72;35.15;;
45964;Laerm;31671;48.092;11.842;2023-04-16T00:45:50;29.08;27.71;30.39;;
45964;Laerm;31671;48.092;11.842;2023-04-16T00:48:16;29.12;27.68;37.64;;
45964;Laerm;31671;48.092;11.842;2023-04-16T00:50:42;29.15;27.69;37.89;;
45964;Laerm;31671;48.092;11.842;2023-04-16T00:53:08;29.03;27.64;37.92;;
45964;Laerm;31671;48.092;11.842;2023-04-16T00:55:34;29.04;27.81;30.61;;
45964;Laerm;31671;48.092;11.842;2023-04-16T00:58:00;29.29;27.53;31.34;;
45964;Laerm;31671;48.092;11.842;2023-04-16T01:00:25;29.22;27.62;39.88;;
45964;Laerm;31671;48.092;11.842;2023-04-16T01:02:52;29.13;27.67;37.41;;
45964;Laerm;31671;48.092;11.842;2023-04-16T01:05:18;29.10;27.59;35.79;;
45964;Laerm;31671;48.092;11.842;2023-04-16T01:07:44;29.07;27.73;31.32;;
45964;Laerm;31671;48.092;11.842;2023-04-16T01:10:10;29.03;27.75;30.23;;
45964;Laerm;31671;48.092;11.842;2023-04-16T01:12:35;29.24;27.83;39.52;;
45964;Laerm;31671;48.092;11.842;2023-04-16T01:15:01;29.13;27.67;31.19;;
45964;Laerm;31671;48.092;11.842;2023-04-16T01:17:27;29.03;27.67;30.44;;
45964;Laerm;31671;48.092;11.842;2023-04-16T01:19:53;29.97;27.52;36.81;;
45964;Laerm;31671;48.092;11.842;2023-04-16T01:22:18;29.07;27.64;31.99;;
45964;Laerm;31671;48.092;11.842;2023-04-16T01:24:44;29.08;27.83;32.08;;
45964;Laerm;31671;48.092;11.842;2023-04-16T01:27:10;29.10;27.82;31.28;;
45964;Laerm;31671;48.092;11.842;2023-04-16T01:29:35;29.02;27.62;31.55;;
45964;Laerm;31671;48.092;11.842;2023-04-16T01:32:01;29.14;27.55;33.08;;
45964;Laerm;31671;48.092;11.842;2023-04-16T01:34:32;29.05;27.46;33.87;;
45964;Laerm;31671;48.092;11.842;2023-04-16T01:36:58;29.05;27.65;39.14;;
45964;Laerm;31671;48.092;11.842;2023-04-16T01:39:24;29.09;27.85;34.08;;
45964;Laerm;31671;48.092;11.842;2023-04-16T01:41:49;29.17;27.66;42.07;;
45964;Laerm;31671;48.092;11.842;2023-04-16T01:44:15;29.01;27.70;30.61;;
45964;Laerm;31671;48.092;11.842;2023-04-16T01:46:41;29.16;27.73;37.57;;
45964;Laerm;31671;48.092;11.842;2023-04-16T01:49:07;29.11;27.69;33.36;;
45964;Laerm;31671;48.092;11.842;2023-04-16T01:51:33;29.16;27.74;37.68;;
45964;Laerm;31671;48.092;11.842;2023-04-16T01:53:58;29.05;27.72;30.36;;
45964;Laerm;31671;48.092;11.842;2023-04-16T01:56:24;29.09;27.55;30.43;;
45964;Laerm;31671;48.092;11.842;2023-04-16T01:58:50;29.20;27.93;34.90;;
45964;Laerm;31671;48.092;11.842;2023-04-16T02:01:17;29.14;27.75;30.47;;
45964;Laerm;31671;48.092;11.842;2023-04-16T02:03:43;29.10;27.77;36.46;;
45964;Laerm;31671;48.092;11.842;2023-04-16T02:06:09;29.68;27.82;50.64;;
45964;Laerm;31671;48.092;11.842;2023-04-16T02:08:34;29.98;27.82;38.41;;
45964;Laerm;31671;48.092;11.842;2023-04-16T02:11:03;29.06;27.83;31.50;;
45964;Laerm;31671;48.092;11.842;2023-04-16T02:13:29;29.07;27.64;30.25;;
45964;Laerm;31671;48.092;11.842;2023-04-16T02:15:54;29.17;27.78;33.24;;
45964;Laerm;31671;48.092;11.842;2023-04-16T02:18:43;29.20;27.91;33.00;;
45964;Laerm;31671;48.092;11.842;2023-04-16T02:21:10;29.22;27.51;44.68;;
45964;Laerm;31671;48.092;11.842;2023-04-16T02:23:36;29.17;27.36;45.95;;
45964;Laerm;31671;48.092;11.842;2023-04-16T02:26:02;29.08;27.74;31.26;;
45964;Laerm;31671;48.092;11.842;2023-04-16T02:28:28;29.11;27.66;30.91;;
45964;Laerm;31671;48.092;11.842;2023-04-16T02:30:54;29.62;27.72;45.85;;
45964;Laerm;31671;48.092;11.842;2023-04-16T02:33:20;29.31;27.70;35.76;;
45964;Laerm;31671;48.092;11.842;2023-04-16T02:35:55;29.12;27.61;36.08;;
45964;Laerm;31671;48.092;11.842;2023-04-16T02:38:20;29.17;27.79;31.59;;
45964;Laerm;31671;48.092;11.842;2023-04-16T02:40:46;29.11;27.79;36.09;;
45964;Laerm;31671;48.092;11.842;2023-04-16T02:43:12;29.01;27.76;30.42;;
45964;Laerm;31671;48.092;11.842;2023-04-16T02:45:38;29.08;27.79;30.71;;
45964;Laerm;31671;48.092;11.842;2023-04-16T02:48:03;29.39;27.70;32.16;;
45964;Laerm;31671;48.092;11.842;2023-04-16T02:50:29;29.05;27.77;30.62;;
45964;Laerm;31671;48.092;11.842;2023-04-16T02:52:55;29.52;27.54;45.23;;
45964;Laerm;31671;48.092;11.842;2023-04-16T02:55:20;29.13;27.81;31.61;;
45964;Laerm;31671;48.092;11.842;2023-04-16T02:57:46;29.08;27.77;38.02;;
45964;Laerm;31671;48.092;11.842;2023-04-16T03:00:12;29.15;27.80;33.87;;
45964;Laerm;31671;48.092;11.842;2023-04-16T03:02:37;29.21;27.82;41.47;;
45964;Laerm;31671;48.092;11.842;2023-04-16T03:05:03;29.11;27.87;31.47;;
45964;Laerm;31671;48.092;11.842;2023-04-16T03:07:29;29.05;27.83;33.05;;
45964;Laerm;31671;48.092;11.842;2023-04-16T03:09:55;29.25;27.83;40.89;;
45964;Laerm;31671;48.092;11.842;2023-04-16T03:12:20;29.20;27.53;43.75;;
45964;Laerm;31671;48.092;11.842;2023-04-16T03:14:46;29.10;27.82;31.95;;
45964;Laerm;31671;48.092;11.842;2023-04-16T03:17:12;29.21;27.83;34.94;;
45964;Laerm;31671;48.092;11.842;2023-04-16T03:19:37;29.07;27.70;33.68;;
45964;Laerm;31671;48.092;11.842;2023-04-16T03:22:03;29.35;27.81;43.58;;
45964;Laerm;31671;48.092;11.842;2023-04-16T03:24:29;29.14;27.57;36.61;;
45964;Laerm;31671;48.092;11.842;2023-04-16T03:26:56;29.11;27.60;32.61;;
45964;Laerm;31671;48.092;11.842;2023-04-16T03:29:22;31.11;27.67;41.64;;
45964;Laerm;31671;48.092;11.842;2023-04-16T03:31:48;29.17;27.92;36.61;;
45964;Laerm;31671;48.092;11.842;2023-04-16T03:34:14;29.75;27.84;39.34;;
45964;Laerm;31671;48.092;11.842;2023-04-16T03:36:40;29.06;27.79;30.29;;
45964;Laerm;31671;48.092;11.842;2023-04-16T03:39:06;29.18;27.87;32.85;;
45964;Laerm;31671;48.092;11.842;2023-04-16T03:41:31;29.51;28.03;41.37;;
45964;Laerm;31671;48.092;11.842;2023-04-16T03:43:57;29.33;27.82;34.29;;
45964;Laerm;31671;48.092;11.842;2023-04-16T03:46:23;29.40;27.64;38.07;;
45964;Laerm;31671;48.092;11.842;2023-04-16T03:48:49;29.51;27.52;36.08;;
45964;Laerm;31671;48.092;11.842;2023-04-16T03:51:15;29.85;27.65;43.54;;
45964;Laerm;31671;48.092;11.842;2023-04-16T03:53:40;29.61;27.78;41.30;;
45964;Laerm;31671;48.092;11.842;2023-04-16T03:56:06;29.69;27.80;37.49;;
45964;Laerm;31671;48.092;11.842;2023-04-16T03:58:32;29.82;28.04;39.90;;
45964;Laerm;31671;48.092;11.842;2023-04-16T04:00:57;30.04;27.89;38.46;;
45964;Laerm;31671;48.092;11.842;2023-04-16T04:03:23;30.46;27.90;43.46;;
45964;Laerm;31671;48.092;11.842;2023-04-16T04:05:49;30.12;28.05;42.39;;
45964;Laerm;31671;48.092;11.842;2023-04-16T04:08:21;29.94;27.78;38.42;;
45964;Laerm;31671;48.092;11.842;2023-04-16T04:10:47;31.83;27.81;55.81;;
45964;Laerm;31671;48.092;11.842;2023-04-16T04:13:13;29.67;27.42;35.64;;
45964;Laerm;31671;48.092;11.842;2023-04-16T04:15:39;29.21;27.39;33.52;;
45964;Laerm;31671;48.092;11.842;2023-04-16T04:18:05;29.53;27.89;34.13;;
45964;Laerm;31671;48.092;11.842;2023-04-16T04:20:30;29.66;27.76;42.93;;
45964;Laerm;31671;48.092;11.842;2023-04-16T04:22:56;29.38;27.78;35.06;;
45964;Laerm;31671;48.092;11.842;2023-04-16T04:25:24;29.30;27.51;32.06;;
45964;Laerm;31671;48.092;11.842;2023-04-16T04:27:50;29.13;27.84;30.59;;
45964;Laerm;31671;48.092;11.842;2023-04-16T04:30:15;29.36;27.83;36.27;;
45964;Laerm;31671;48.092;11.842;2023-04-16T04:32:42;29.17;27.89;34.05;;
45964;Laerm;31671;48.092;11.842;2023-04-16T04:35:08;29.16;27.72;30.91;;
45964;Laerm;31671;48.092;11.842;2023-04-16T04:37:34;29.24;27.75;33.63;;
45964;Laerm;31671;48.092;11.842;2023-04-16T04:40:06;29.17;27.84;30.97;;
45964;Laerm;31671;48.092;11.842;2023-04-16T04:42:33;29.85;27.81;39.19;;
45964;Laerm;31671;48.092;11.842;2023-04-16T04:44:58;29.78;28.03;40.49;;
45964;Laerm;31671;48.092;11.842;2023-04-16T04:47:24;29.45;27.76;38.16;;
45964;Laerm;31671;48.092;11.842;2023-04-16T04:49:51;29.33;27.78;34.86;;
45964;Laerm;31671;48.092;11.842;2023-04-16T04:52:18;29.22;27.65;39.55;;
45964;Laerm;31671;48.092;11.842;2023-04-16T04:54:44;29.80;27.83;40.55;;
45964;Laerm;31671;48.092;11.842;2023-04-16T04:57:09;29.78;27.92;39.36;;
45964;Laerm;31671;48.092;11.842;2023-04-16T04:59:35;29.37;27.73;34.93;;
45964;Laerm;31671;48.092;11.842;2023-04-16T05:02:01;29.50;27.84;33.34;;
45964;Laerm;31671;48.092;11.842;2023-04-16T05:04:27;29.37;27.88;32.64;;
45964;Laerm;31671;48.092;11.842;2023-04-16T05:06:52;29.43;27.66;37.09;;
45964;Laerm;31671;48.092;11.842;2023-04-16T05:09:18;29.26;28.00;32.64;;
45964;Laerm;31671;48.092;11.842;2023-04-16T05:11:44;29.26;27.69;34.42;;
45964;Laerm;31671;48.092;11.842;2023-04-16T05:14:09;29.43;27.78;41.01;;
45964;Laerm;31671;48.092;11.842;2023-04-16T05:16:35;29.63;27.67;44.30;;
45964;Laerm;31671;48.092;11.842;2023-04-16T05:19:01;30.01;28.03;43.98;;
45964;Laerm;31671;48.092;11.842;2023-04-16T05:21:27;30.01;27.67;39.10;;
45964;Laerm;31671;48.092;11.842;2023-04-16T05:23:52;29.82;28.00;39.69;;
45964;Laerm;31671;48.092;11.842;2023-04-16T05:26:18;29.57;27.81;35.84;;
45964;Laerm;31671;48.092;11.842;2023-04-16T05:28:44;29.40;27.56;40.95;;
45964;Laerm;31671;48.092;11.842;2023-04-16T05:31:09;30.19;27.82;43.15;;
45964;Laerm;31671;48.092;11.842;2023-04-16T05:33:35;29.46;28.04;37.54;;
45964;Laerm;31671;48.092;11.842;2023-04-16T05:36:01;29.37;27.85;33.09;;
45964;Laerm;31671;48.092;11.842;2023-04-16T05:38:27;29.80;28.02;48.73;;
45964;Laerm;31671;48.092;11.842;2023-04-16T05:40:52;29.44;27.82;36.92;;
45964;Laerm;31671;48.092;11.842;2023-04-16T05:43:18;32.47;27.86;62.09;;
45964;Laerm;31671;48.092;11.842;2023-04-16T05:45:44;29.62;27.95;35.37;;
45964;Laerm;31671;48.092;11.842;2023-04-16T05:48:09;30.80;27.88;46.04;;
45964;Laerm;31671;48.092;11.842;2023-04-16T05:50:35;29.53;28.04;44.74;;
45964;Laerm;31671;48.092;11.842;2023-04-16T05:53:01;29.70;28.11;36.48;;
45964;Laerm;31671;48.092;11.842;2023-04-16T05:55:27;29.88;28.08;38.63;;
45964;Laerm;31671;48.092;11.842;2023-04-16T05:57:53;30.01;28.01;38.33;;
45964;Laerm;31671;48.092;11.842;2023-04-16T06:00:19;29.63;27.85;44.02;;
45964;Laerm;31671;48.092;11.842;2023-04-16T06:02:44;30.14;28.12;41.64;;
45964;Laerm;31671;48.092;11.842;2023-04-16T06:05:10;30.22;28.04;38.96;;
45964;Laerm;31671;48.092;11.842;2023-04-16T06:07:36;29.59;27.86;44.09;;
45964;Laerm;31671;48.092;11.842;2023-04-16T06:10:02;30.29;27.68;46.19;;
45964;Laerm;31671;48.092;11.842;2023-04-16T06:12:27;29.77;28.09;35.97;;
45964;Laerm;31671;48.092;11.842;2023-04-16T06:14:53;29.77;27.94;46.73;;
45964;Laerm;31671;48.092;11.842;2023-04-16T06:17:18;31.16;28.01;52.56;;
45964;Laerm;31671;48.092;11.842;2023-04-16T06:19:44;29.84;28.10;43.34;;
45964;Laerm;31671;48.092;11.842;2023-04-16T06:22:10;32.00;27.79;52.86;;
45964;Laerm;31671;48.092;11.842;2023-04-16T06:24:36;29.43;27.85;36.58;;
45964;Laerm;31671;48.092;11.842;2023-04-16T06:27:01;30.20;27.79;44.55;;
45964;Laerm;31671;48.092;11.842;2023-04-16T06:29:27;31.12;27.84;58.84;;
45964;Laerm;31671;48.092;11.842;2023-04-16T06:31:53;29.32;27.85;34.85;;
45964;Laerm;31671;48.092;11.842;2023-04-16T06:34:19;29.82;27.97;43.13;;
45964;Laerm;31671;48.092;11.842;2023-04-16T06:36:44;29.78;27.97;45.21;;
45964;Laerm;31671;48.092;11.842;2023-04-16T06:39:10;29.58;27.82;41.09;;
45964;Laerm;31671;48.092;11.842;2023-04-16T06:41:36;29.76;27.90;43.68;;
45964;Laerm;31671;48.092;11.842;2023-04-16T06:44:01;29.73;27.97;41.08;;
45964;Laerm;31671;48.092;11.842;2023-04-16T06:46:27;35.80;28.06;65.00;;
45964;Laerm;31671;48.092;11.842;2023-04-16T06:48:53;29.78;27.75;41.42;;
45964;Laerm;31671;48.092;11.842;2023-04-16T06:51:18;30.17;27.78;41.43;;
45964;Laerm;31671;48.092;11.842;2023-04-16T06:53:44;30.65;28.08;47.31;;
45964;Laerm;31671;48.092;11.842;2023-04-16T06:56:10;29.82;27.92;39.17;;
45964;Laerm;31671;48.092;11.842;2023-04-16T06:58:35;29.71;28.10;39.46;;
45964;Laerm;31671;48.092;11.842;2023-04-16T07:01:01;30.62;27.83;50.22;;
45964;Laerm;31671;48.092;11.842;2023-04-16T07:03:27;29.98;27.88;41.22;;
45964;Laerm;31671;48.092;11.842;2023-04-16T07:05:53;37.21;27.98;67.89;;
45964;Laerm;31671;48.092;11.842;2023-04-16T07:08:18;31.88;27.95;54.85;;
45964;Laerm;31671;48.092;11.842;2023-04-16T07:10:44;30.31;27.81;53.79;;
45964;Laerm;31671;48.092;11.842;2023-04-16T07:13:10;30.54;27.84;50.25;;
45964;Laerm;31671;48.092;11.842;2023-04-16T07:15:35;29.56;28.09;41.91;;
45964;Laerm;31671;48.092;11.842;2023-04-16T07:18:01;29.65;27.79;41.94;;
45964;Laerm;31671;48.092;11.842;2023-04-16T07:20:27;29.42;27.91;37.13;;
45964;Laerm;31671;48.092;11.842;2023-04-16T07:22:52;30.89;27.73;49.29;;
45964;Laerm;31671;48.092;11.842;2023-04-16T07:25:18;30.10;28.03;44.28;;
45964;Laerm;31671;48.092;11.842;2023-04-16T07:27:44;29.83;27.98;45.72;;
45964;Laerm;31671;48.092;11.842;2023-04-16T07:30:10;30.49;28.00;45.24;;
45964;Laerm;31671;48.092;11.842;2023-04-16T07:32:35;30.03;28.00;48.14;;
45964;Laerm;31671;48.092;11.842;2023-04-16T07:35:01;29.54;27.67;42.08;;
45964;Laerm;31671;48.092;11.842;2023-04-16T07:37:27;29.64;27.88;42.59;;
45964;Laerm;31671;48.092;11.842;2023-04-16T07:39:52;30.07;28.03;47.22;;
45964;Laerm;31671;48.092;11.842;2023-04-16T07:42:18;30.29;27.90;51.12;;
45964;Laerm;31671;48.092;11.842;2023-04-16T07:44:44;29.57;27.91;42.66;;
45964;Laerm;31671;48.092;11.842;2023-04-16T07:47:09;29.44;27.61;35.28;;
45964;Laerm;31671;48.092;11.842;2023-04-16T07:49:35;32.97;28.03;62.56;;
45964;Laerm;31671;48.092;11.842;2023-04-16T07:52:01;29.68;28.06;45.63;;
45964;Laerm;31671;48.092;11.842;2023-04-16T07:54:26;29.97;27.89;50.50;;
45964;Laerm;31671;48.092;11.842;2023-04-16T07:56:52;32.28;28.14;55.24;;
45964;Laerm;31671;48.092;11.842;2023-04-16T07:59:18;29.77;28.14;42.27;;
45964;Laerm;31671;48.092;11.842;2023-04-16T08:01:43;29.62;27.95;34.02;;
45964;Laerm;31671;48.092;11.842;2023-04-16T08:04:09;29.58;27.95;35.07;;
45964;Laerm;31671;48.092;11.842;2023-04-16T08:06:35;29.92;28.11;47.17;;
45964;Laerm;31671;48.092;11.842;2023-04-16T08:09:00;29.88;27.88;41.53;;
45964;Laerm;31671;48.092;11.842;2023-04-16T08:11:26;31.15;27.97;53.85;;
45964;Laerm;31671;48.092;11.842;2023-04-16T08:13:52;29.63;27.89;37.17;;
45964;Laerm;31671;48.092;11.842;2023-04-16T08:16:18;29.44;28.05;38.34;;
45964;Laerm;31671;48.092;11.842;2023-04-16T08:18:44;30.44;28.23;41.47;;
45964;Laerm;31671;48.092;11.842;2023-04-16T08:21:09;38.96;28.27;62.71;;
45964;Laerm;31671;48.092;11.842;2023-04-16T08:23:35;31.26;28.21;50.02;;
45964;Laerm;31671;48.092;11.842;2023-04-16T08:26:01;29.96;27.82;50.48;;
45964;Laerm;31671;48.092;11.842;2023-04-16T08:28:26;31.45;28.23;56.50;;
45964;Laerm;31671;48.092;11.842;2023-04-16T08:30:52;29.60;27.76;43.19;;
45964;Laerm;31671;48.092;11.842;2023-04-16T08:33:18;30.46;28.08;54.09;;
45964;Laerm;31671;48.092;11.842;2023-04-16T08:35:43;29.46;27.95;40.00;;
45964;Laerm;31671;48.092;11.842;2023-04-16T08:38:09;33.40;27.99;64.11;;
45964;Laerm;31671;48.092;11.842;2023-04-16T08:40:36;30.68;28.19;52.92;;
45964;Laerm;31671;48.092;11.842;2023-04-16T08:43:02;30.19;28.28;43.22;;
45964;Laerm;31671;48.092;11.842;2023-04-16T08:45:30;29.55;28.11;34.09;;
45964;Laerm;31671;48.092;11.842;2023-04-16T08:47:59;29.64;28.14;43.19;;
45964;Laerm;31671;48.092;11.842;2023-04-16T08:50:25;29.93;28.09;47.55;;
45964;Laerm;31671;48.092;11.842;2023-04-16T08:52:57;29.77;28.31;41.87;;
45964;Laerm;31671;48.092;11.842;2023-04-16T08:55:25;30.24;28.26;48.15;;
45964;Laerm;31671;48.092;11.842;2023-04-16T08:57:58;30.54;28.27;46.88;;
45964;Laerm;31671;48.092;11.842;2023-04-16T09:00:24;29.84;28.19;37.83;;
45964;Laerm;31671;48.092;11.842;2023-04-16T09:02:50;29.87;28.44;43.08;;
45964;Laerm;31671;48.092;11.842;2023-04-16T09:05:16;29.79;28.34;42.20;;
45964;Laerm;31671;48.092;11.842;2023-04-16T09:07:43;29.91;28.47;45.03;;
45964;Laerm;31671;48.092;11.842;2023-04-16T09:10:09;29.82;28.38;36.97;;
45964;Laerm;31671;48.092;11.842;2023-04-16T09:12:36;30.35;28.71;37.44;;
45964;Laerm;31671;48.092;11.842;2023-04-16T09:15:01;30.30;28.96;39.59;;
45964;Laerm;31671;48.092;11.842;2023-04-16T09:17:27;30.22;28.86;36.81;;
45964;Laerm;31671;48.092;11.842;2023-04-16T09:19:53;36.19;28.96;56.88;;
45964;Laerm;31671;48.092;11.842;2023-04-16T09:22:19;30.36;28.98;42.99;;
45964;Laerm;31671;48.092;11.842;2023-04-16T09:24:45;30.56;28.97;32.30;;
45964;Laerm;31671;48.092;11.842;2023-04-16T09:27:11;30.93;29.15;43.36;;
45964;Laerm;31671;48.092;11.842;2023-04-16T09:29:38;30.96;29.41;46.12;;
45964;Laerm;31671;48.092;11.842;2023-04-16T09:32:07;30.64;29.24;40.51;;
45964;Laerm;31671;48.092;11.842;2023-04-16T09:34:34;30.60;29.08;45.20;;
45964;Laerm;31671;48.092;11.842;2023-04-16T09:37:16;30.39;29.03;33.98;;
45964;Laerm;31671;48.092;11.842;2023-04-16T09:39:42;30.47;29.22;32.20;;
45964;Laerm;31671;48.092;11.842;2023-04-16T09:42:08;30.50;29.20;36.29;;
45964;Laerm;31671;48.092;11.842;2023-04-16T09:44:34;30.54;29.00;35.23;;
45964;Laerm;31671;48.092;11.842;2023-04-16T09:47:03;30.24;28.94;34.72;;
45964;Laerm;31671;48.092;11.842;2023-04-16T09:49:30;30.69;28.96;35.57;;
45964;Laerm;31671;48.092;11.842;2023-04-16T09:51:58;30.48;28.91;34.48;;
45964;Laerm;31671;48.092;11.842;2023-04-16T09:54:24;30.72;28.85;44.89;;
45964;Laerm;31671;48.092;11.842;2023-04-16T09:56:50;30.25;29.02;33.05;;
45964;Laerm;31671;48.092;11.842;2023-04-16T09:59:20;30.26;28.97;32.57;;
45964;Laerm;31671;48.092;11.842;2023-04-16T10:01:47;30.32;28.97;34.11;;
45964;Laerm;31671;48.092;11.842;2023-04-16T10:04:12;30.51;28.94;34.48;;
45964;Laerm;31671;48.092;11.842;2023-04-16T10:06:38;30.40;28.71;35.25;;
45964;Laerm;31671;48.092;11.842;2023-04-16T10:09:05;30.16;28.69;32.28;;
45964;Laerm;31671;48.092;11.842;2023-04-16T10:11:31;30.15;28.89;34.69;;
45964;Laerm;31671;48.092;11.842;2023-04-16T10:13:57;30.29;28.85;33.22;;
45964;Laerm;31671;48.092;11.842;2023-04-16T10:16:23;30.28;29.03;37.96;;
45964;Laerm;31671;48.092;11.842;2023-04-16T10:18:49;30.09;28.77;32.71;;
45964;Laerm;31671;48.092;11.842;2023-04-16T10:21:15;30.19;28.81;33.78;;
45964;Laerm;31671;48.092;11.842;2023-04-16T10:23:41;30.31;28.85;33.12;;
45964;Laerm;31671;48.092;11.842;2023-04-16T10:26:07;30.12;28.68;40.66;;
45964;Laerm;31671;48.092;11.842;2023-04-16T10:28:33;30.17;28.55;38.33;;
45964;Laerm;31671;48.092;11.842;2023-04-16T10:30:59;30.54;28.53;40.12;;
45964;Laerm;31671;48.092;11.842;2023-04-16T10:33:29;30.80;28.45;42.76;;
45964;Laerm;31671;48.092;11.842;2023-04-16T10:36:09;30.45;28.68;34.34;;
45964;Laerm;31671;48.092;11.842;2023-04-16T10:38:36;31.94;28.73;61.83;;
45964;Laerm;31671;48.092;11.842;2023-04-16T10:41:03;30.45;28.81;33.01;;
45964;Laerm;31671;48.092;11.842;2023-04-16T10:43:29;30.27;28.98;33.25;;
45964;Laerm;31671;48.092;11.842;2023-04-16T10:45:55;30.79;29.11;42.48;;
45964;Laerm;31671;48.092;11.842;2023-04-16T10:48:22;30.55;28.86;45.03;;
45964;Laerm;31671;48.092;11.842;2023-04-16T10:53:17;30.76;29.01;45.84;;
45964;Laerm;31671;48.092;11.842;2023-04-16T10:55:56;30.34;29.02;32.65;;
45964;Laerm;31671;48.092;11.842;2023-04-16T10:58:28;30.30;28.73;35.69;;
45964;Laerm;31671;48.092;11.842;2023-04-16T11:00:54;30.23;28.99;33.82;;
45964;Laerm;31671;48.092;11.842;2023-04-16T11:03:20;30.32;28.65;38.51;;
45964;Laerm;31671;48.092;11.842;2023-04-16T11:05:45;30.53;28.89;40.87;;
45964;Laerm;31671;48.092;11.842;2023-04-16T11:08:14;30.75;28.77;42.10;;
45964;Laerm;31671;48.092;11.842;2023-04-16T11:10:40;30.49;28.74;42.57;;
45964;Laerm;31671;48.092;11.842;2023-04-16T11:13:06;30.84;28.66;45.29;;
45964;Laerm;31671;48.092;11.842;2023-04-16T11:15:31;30.58;28.73;47.84;;
45964;Laerm;31671;48.092;11.842;2023-04-16T11:17:57;30.28;28.65;33.22;;
45964;Laerm;31671;48.092;11.842;2023-04-16T11:20:26;30.36;28.76;47.75;;
45964;Laerm;31671;48.092;11.842;2023-04-16T11:22:53;30.16;28.80;33.00;;
45964;Laerm;31671;48.092;11.842;2023-04-16T11:25:20;30.36;28.69;35.42;;
45964;Laerm;31671;48.092;11.842;2023-04-16T11:27:45;30.01;28.73;33.97;;
45964;Laerm;31671;48.092;11.842;2023-04-16T11:30:11;34.14;28.59;52.35;;
45964;Laerm;31671;48.092;11.842;2023-04-16T11:32:37;29.98;28.48;41.69;;
45964;Laerm;31671;48.092;11.842;2023-04-16T11:35:04;29.75;28.43;33.02;;
45964;Laerm;31671;48.092;11.842;2023-04-16T11:37:37;29.81;28.44;37.83;;
45964;Laerm;31671;48.092;11.842;2023-04-16T11:40:04;29.95;28.55;34.43;;
45964;Laerm;31671;48.092;11.842;2023-04-16T11:42:30;29.95;28.35;35.01;;
45964;Laerm;31671;48.092;11.842;2023-04-16T11:44:58;29.77;28.31;36.19;;
45964;Laerm;31671;48.092;11.842;2023-04-16T11:47:24;29.74;28.20;33.62;;
45964;Laerm;31671;48.092;11.842;2023-04-16T11:49:50;31.87;28.30;57.67;;
45964;Laerm;31671;48.092;11.842;2023-04-16T11:52:25;29.85;28.44;45.23;;
45964;Laerm;31671;48.092;11.842;2023-04-16T11:54:51;30.11;28.48;39.64;;
45964;Laerm;31671;48.092;11.842;2023-04-16T11:57:30;30.11;28.20;37.37;;
45964;Laerm;31671;48.092;11.842;2023-04-16T11:59:56;30.31;28.16;47.76;;
45964;Laerm;31671;48.092;11.842;2023-04-16T12:02:34;29.83;28.32;39.24;;
45964;Laerm;31671;48.092;11.842;2023-04-16T12:05:01;29.66;28.33;36.08;;
45964;Laerm;31671;48.092;11.842;2023-04-16T12:07:27;29.98;28.35;33.76;;
45964;Laerm;31671;48.092;11.842;2023-04-16T12:10:03;29.82;28.29;35.61;;
45964;Laerm;31671;48.092;11.842;2023-04-16T12:12:29;29.82;28.44;33.76;;
45964;Laerm;31671;48.092;11.842;2023-04-16T12:14:55;30.06;28.50;32.47;;
45964;Laerm;31671;48.092;11.842;2023-04-16T12:17:22;29.83;28.50;32.33;;
45964;Laerm;31671;48.092;11.842;2023-04-16T12:19:54;29.83;28.55;34.40;;
45964;Laerm;31671;48.092;11.842;2023-04-16T12:22:26;29.93;28.38;40.42;;
45964;Laerm;31671;48.092;11.842;2023-04-16T12:24:58;30.16;28.63;43.58;;
45964;Laerm;31671;48.092;11.842;2023-04-16T12:27:24;30.38;28.74;39.16;;
45964;Laerm;31671;48.092;11.842;2023-04-16T12:30:01;30.12;28.55;36.61;;
45964;Laerm;31671;48.092;11.842;2023-04-16T12:32:27;30.16;28.74;35.52;;
45964;Laerm;31671;48.092;11.842;2023-04-16T12:34:52;30.19;28.51;36.38;;
45964;Laerm;31671;48.092;11.842;2023-04-16T12:37:18;30.06;28.51;42.13;;
45964;Laerm;31671;48.092;11.842;2023-04-16T12:39:44;30.01;28.35;34.06;;
45964;Laerm;31671;48.092;11.842;2023-04-16T12:42:09;29.77;28.35;36.63;;
45964;Laerm;31671;48.092;11.842;2023-04-16T12:44:35;29.97;28.12;37.60;;
45964;Laerm;31671;48.092;11.842;2023-04-16T12:47:01;30.10;28.22;39.41;;
45964;Laerm;31671;48.092;11.842;2023-04-16T12:49:26;29.80;28.35;33.48;;
45964;Laerm;31671;48.092;11.842;2023-04-16T12:51:52;29.79;28.26;40.37;;
45964;Laerm;31671;48.092;11.842;2023-04-16T12:54:18;29.86;28.39;33.83;;
45964;Laerm;31671;48.092;11.842;2023-04-16T12:56:43;29.75;27.64;35.21;;
45964;Laerm;31671;48.092;11.842;2023-04-16T12:59:09;29.62;28.21;34.02;;
45964;Laerm;31671;48.092;11.842;2023-04-16T13:01:35;29.77;28.36;38.50;;
45964;Laerm;31671;48.092;11.842;2023-04-16T13:04:01;29.98;28.26;41.17;;
45964;Laerm;31671;48.092;11.842;2023-04-16T13:06:26;29.82;28.14;38.06;;
45964;Laerm;31671;48.092;11.842;2023-04-16T13:08:52;29.57;28.37;32.65;;
45964;Laerm;31671;48.092;11.842;2023-04-16T13:11:18;30.36;28.35;37.31;;
45964;Laerm;31671;48.092;11.842;2023-04-16T13:13:43;29.71;28.29;33.59;;
45964;Laerm;31671;48.092;11.842;2023-04-16T13:16:09;29.72;28.25;33.51;;
45964;Laerm;31671;48.092;11.842;2023-04-16T13:18:35;29.58;28.27;32.54;;
45964;Laerm;31671;48.092;11.842;2023-04-16T13:21:01;29.83;28.19;33.66;;
45964;Laerm;31671;48.092;11.842;2023-04-16T13:23:26;29.76;28.14;38.14;;
45964;Laerm;31671;48.092;11.842;2023-04-16T13:25:52;29.79;28.35;37.58;;
45964;Laerm;31671;48.092;11.842;2023-04-16T13:28:18;29.61;28.15;31.38;;
45964;Laerm;31671;48.092;11.842;2023-04-16T13:30:44;30.00;28.22;43.28;;